Accueil
METAR-TAF:

METAR-TAF

Aéroports :

Woensdrecht, Pays-Bas

latitude: 51-27N, longitude: 004-20E, altitude: 20 m

Observation

Le bulletin a été fait il y a 10 minutes, à 19:25 UTC
Vent 8 kt de est
Température 2°C
Humidité 93%
Pression 1013 hPa
Visibilité: 2300 m
brume

METAR: EHWO 201925Z AUTO 09008KT 2300 BR OVC003/// 02/01 Q1013 YLO

Heure: 20:35 (19:35 UTC)

Prévision

Le bulletin a été fait il y a 10 heures et 0 minutes, à 09:35 UTC
Prévision valable du 20 à 10 UTC au 20 à 22 UTC
Vent 5 kt de est
Visibilité 10 km ou plus
pas de nuages en-dessous de 1500 mètres et pas de cumulonimbus.
Probabilité 30% :
Temporairement
du 20 à 17 UTC au 20 à 22 UTC
Nuages fragmentés à une hauteur de 1000 ft

TAF: EHWO 200935Z 2010/2022 09005KT CAVOK PROB30 TEMPO 2017/2022 BKN010

Observations et prévisions météorologiques de plus de 4000 aéroports (messages METAR et TAF).

Les stations disponibles sont représentées par des disques jaunes et rouges sur la carte.

Passer la souris dessus pour voir le nom de la station.

Cliquer dessus pour voir les observations et prévisions météorologiques.

Pour changer de carte: cliquez sur les boutons verts avec une croix noire pour zoomer, sur le bouton vert avec un tiret pour effectuer un zoom arrière, ou sur les flèches vertes pour les cartes adjacentes.


METAR-TAF: